createdAt,value
2022-11-27T00:00:30.159Z,4.02
2022-11-27T00:01:30.211Z,3.92
2022-11-27T00:02:30.386Z,4.07
2022-11-27T00:03:30.651Z,4.09
2022-11-27T00:04:30.154Z,4.06
2022-11-27T00:05:30.161Z,4.07
2022-11-27T00:06:30.192Z,3.88
2022-11-27T00:07:30.419Z,4.07
2022-11-27T00:08:30.212Z,3.95
2022-11-27T00:09:31.279Z,4
2022-11-27T00:10:30.176Z,4.03
2022-11-27T00:11:30.192Z,3.91
2022-11-27T00:12:30.182Z,3.95
2022-11-27T00:13:30.207Z,4
2022-11-27T00:14:30.182Z,3.96
2022-11-27T00:15:30.230Z,3.81
2022-11-27T00:16:30.535Z,3.89
2022-11-27T00:17:30.190Z,3.89
2022-11-27T00:18:30.212Z,3.85
2022-11-27T00:19:30.225Z,3.82
2022-11-27T00:20:34.250Z,3.96
2022-11-27T00:21:30.208Z,3.88
2022-11-27T00:22:30.231Z,3.82
2022-11-27T00:23:30.249Z,3.92
2022-11-27T00:24:30.199Z,3.82
2022-11-27T00:25:30.209Z,3.78
2022-11-27T00:26:37.438Z,3.88
2022-11-27T00:27:30.201Z,3.89
2022-11-27T00:28:30.217Z,3.92
2022-11-27T00:29:30.269Z,3.85
2022-11-27T00:30:30.200Z,3.88
2022-11-27T00:31:33.379Z,3.84
2022-11-27T00:32:30.213Z,3.82
2022-11-27T00:33:30.245Z,3.88
2022-11-27T00:34:30.214Z,3.96
2022-11-27T00:35:30.258Z,3.94
2022-11-27T00:36:30.226Z,3.95
2022-11-27T00:37:30.240Z,3.88
2022-11-27T00:38:32.524Z,3.86
2022-11-27T00:39:30.238Z,3.95
2022-11-27T00:40:30.221Z,3.89
2022-11-27T00:41:30.247Z,3.94
2022-11-27T00:42:33.158Z,3.95
2022-11-27T00:43:30.282Z,3.91
2022-11-27T00:44:30.237Z,3.96
2022-11-27T00:45:30.239Z,3.91
2022-11-27T00:46:33.588Z,3.91
2022-11-27T00:47:30.232Z,3.92
2022-11-27T00:48:30.317Z,3.91
2022-11-27T00:49:30.234Z,3.91
2022-11-27T00:50:30.245Z,3.84
2022-11-27T00:51:30.359Z,3.91
2022-11-27T00:52:30.238Z,3.84
2022-11-27T00:53:33.265Z,3.99
2022-11-27T00:54:30.255Z,4.03
2022-11-27T00:55:30.264Z,4.04
2022-11-27T00:56:30.246Z,3.99
2022-11-27T00:57:30.253Z,3.92
2022-11-27T00:58:30.306Z,4.07
2022-11-27T00:59:30.253Z,3.94
2022-11-27T01:00:30.251Z,3.92
2022-11-27T01:01:30.496Z,4.02
2022-11-27T01:02:30.413Z,3.94
2022-11-27T01:03:30.285Z,4.14
2022-11-27T01:04:33.128Z,3.94
2022-11-27T01:05:30.271Z,4
2022-11-27T01:06:30.267Z,4.04
2022-11-27T01:07:30.499Z,4.03
2022-11-27T01:08:30.277Z,4.02
2022-11-27T01:09:33.013Z,3.99
2022-11-27T01:10:30.297Z,4.03
2022-11-27T01:11:30.443Z,3.99
2022-11-27T01:12:30.271Z,3.88
2022-11-27T01:13:30.290Z,4.07
2022-11-27T01:14:30.320Z,4
2022-11-27T01:15:33.501Z,3.95
2022-11-27T01:16:30.668Z,4.06
2022-11-27T01:17:30.312Z,3.96
2022-11-27T01:18:30.365Z,3.96
2022-11-27T01:19:30.331Z,4.07
2022-11-27T01:20:31.311Z,3.91
2022-11-27T01:21:30.284Z,4.12
2022-11-27T01:22:30.308Z,3.96
2022-11-27T01:23:30.362Z,4.07
2022-11-27T01:24:30.286Z,3.99
2022-11-27T01:25:31.817Z,4.04
2022-11-27T01:26:33.138Z,4.09
2022-11-27T01:27:30.318Z,3.91
2022-11-27T01:28:30.329Z,4.06
2022-11-27T01:29:30.549Z,4.09
2022-11-27T01:30:30.287Z,3.99
2022-11-27T01:31:33.739Z,3.89
2022-11-27T01:32:30.313Z,3.86
2022-11-27T01:33:30.326Z,3.85
2022-11-27T01:34:30.303Z,3.95
2022-11-27T01:35:32.058Z,3.77
2022-11-27T01:36:30.332Z,3.84
2022-11-27T01:37:33.363Z,3.91
2022-11-27T01:38:33.398Z,3.86
2022-11-27T01:39:30.306Z,3.82
2022-11-27T01:40:30.320Z,3.84
2022-11-27T01:41:30.340Z,3.84
2022-11-27T01:42:33.421Z,3.92
2022-11-27T01:43:30.336Z,3.77
2022-11-27T01:44:30.328Z,3.82
2022-11-27T01:45:30.329Z,3.85
2022-11-27T01:46:30.625Z,3.86
2022-11-27T01:47:30.339Z,3.84
2022-11-27T01:48:30.356Z,3.82
2022-11-27T01:49:30.334Z,3.84
2022-11-27T01:50:30.346Z,3.85
2022-11-27T01:51:30.338Z,3.89
2022-11-27T01:52:30.338Z,3.88
2022-11-27T01:53:33.154Z,3.85
2022-11-27T01:54:30.375Z,3.76
2022-11-27T01:55:30.338Z,3.92
2022-11-27T01:56:30.329Z,3.86
2022-11-27T01:57:30.350Z,3.82
2022-11-27T01:58:30.426Z,3.86
2022-11-27T01:59:30.341Z,3.78
2022-11-27T02:00:30.365Z,3.78
2022-11-27T02:01:30.620Z,3.76
2022-11-27T02:02:30.723Z,3.78
2022-11-27T02:03:30.577Z,3.86
2022-11-27T02:04:33.254Z,3.91
2022-11-27T02:05:30.362Z,3.86
2022-11-27T02:06:30.341Z,3.68
2022-11-27T02:07:30.606Z,3.7
2022-11-27T02:08:30.397Z,3.84
2022-11-27T02:09:30.361Z,3.81
2022-11-27T02:10:30.389Z,3.82
2022-11-27T02:11:30.369Z,3.74
2022-11-27T02:12:30.364Z,3.77
2022-11-27T02:13:30.401Z,3.81
2022-11-27T02:14:36.366Z,3.73
2022-11-27T02:15:30.377Z,3.74
2022-11-27T02:16:30.656Z,3.81
2022-11-27T02:17:30.369Z,3.77
2022-11-27T02:18:30.395Z,3.78
2022-11-27T02:19:30.387Z,3.76
2022-11-27T02:20:30.368Z,3.82
2022-11-27T02:21:30.416Z,3.86
2022-11-27T02:22:30.401Z,3.94
2022-11-27T02:23:30.413Z,3.84
2022-11-27T02:24:30.384Z,3.85
2022-11-27T02:25:33.126Z,3.84
2022-11-27T02:26:30.394Z,3.86
2022-11-27T02:27:30.386Z,3.85
2022-11-27T02:28:30.423Z,3.82
2022-11-27T02:29:30.380Z,3.78
2022-11-27T02:30:30.400Z,3.82
2022-11-27T02:31:30.676Z,3.88
2022-11-27T02:32:30.385Z,3.82
2022-11-27T02:33:30.438Z,3.85
2022-11-27T02:34:30.413Z,3.84
2022-11-27T02:35:30.420Z,3.92
2022-11-27T02:36:33.560Z,3.82
2022-11-27T02:37:30.396Z,3.81
2022-11-27T02:38:30.454Z,3.84
2022-11-27T02:39:30.439Z,3.81
2022-11-27T02:40:30.424Z,3.88
2022-11-27T02:41:30.465Z,3.84
2022-11-27T02:42:30.773Z,3.96
2022-11-27T02:43:30.439Z,3.86
2022-11-27T02:44:30.423Z,3.96
2022-11-27T02:45:30.449Z,3.91
2022-11-27T02:46:30.653Z,3.95
2022-11-27T02:47:33.561Z,3.86
2022-11-27T02:48:30.429Z,3.84
2022-11-27T02:49:30.429Z,3.77
2022-11-27T02:50:30.437Z,3.86
2022-11-27T02:51:30.467Z,3.92
2022-11-27T02:52:30.451Z,3.94
2022-11-27T02:53:30.449Z,3.86
2022-11-27T02:54:30.436Z,3.74
2022-11-27T02:55:30.454Z,3.89
2022-11-27T02:56:30.436Z,3.85
2022-11-27T02:57:30.430Z,3.85
2022-11-27T02:58:36.621Z,3.82
2022-11-27T02:59:30.569Z,3.78
2022-11-27T03:00:30.499Z,3.89
2022-11-27T03:01:30.601Z,3.86
2022-11-27T03:02:30.595Z,3.82
2022-11-27T03:03:30.449Z,3.81
2022-11-27T03:04:30.456Z,3.78
2022-11-27T03:05:30.450Z,3.77
2022-11-27T03:06:30.459Z,3.82
2022-11-27T03:07:30.731Z,3.78
2022-11-27T03:08:30.459Z,3.82
2022-11-27T03:09:30.657Z,3.71
2022-11-27T03:10:30.472Z,3.77
2022-11-27T03:11:30.486Z,3.7
2022-11-27T03:12:30.459Z,3.74
2022-11-27T03:13:30.473Z,3.73
2022-11-27T03:14:36.005Z,3.7
2022-11-27T03:15:30.719Z,3.59
2022-11-27T03:16:30.649Z,3.76
2022-11-27T03:17:30.457Z,3.74
2022-11-27T03:18:30.465Z,3.74
2022-11-27T03:19:30.472Z,3.64
2022-11-27T03:20:33.383Z,3.68
2022-11-27T03:21:30.792Z,3.64
2022-11-27T03:22:30.481Z,3.63
2022-11-27T03:23:30.485Z,3.7
2022-11-27T03:24:30.486Z,3.61
2022-11-27T03:25:30.494Z,3.63
2022-11-27T03:26:30.520Z,3.58
2022-11-27T03:27:30.501Z,3.53
2022-11-27T03:28:30.546Z,3.53
2022-11-27T03:29:30.481Z,3.58
2022-11-27T03:30:30.616Z,3.53
2022-11-27T03:31:33.835Z,3.58
2022-11-27T03:32:30.510Z,3.61
2022-11-27T03:33:30.495Z,3.55
2022-11-27T03:34:30.505Z,3.48
2022-11-27T03:35:30.574Z,3.5
2022-11-27T03:36:33.620Z,3.5
2022-11-27T03:37:30.516Z,3.49
2022-11-27T03:38:30.537Z,3.61
2022-11-27T03:39:30.515Z,3.48
2022-11-27T03:40:30.519Z,3.5
2022-11-27T03:41:30.496Z,3.52
2022-11-27T03:42:33.539Z,3.56
2022-11-27T03:43:30.505Z,3.41
2022-11-27T03:44:30.545Z,3.31
2022-11-27T03:45:30.546Z,3.29
2022-11-27T03:46:30.873Z,3.4
2022-11-27T03:47:33.837Z,3.21
2022-11-27T03:48:30.524Z,3.19
2022-11-27T03:49:30.585Z,3.29
2022-11-27T03:50:30.542Z,3.27
2022-11-27T03:51:30.516Z,3.19
2022-11-27T03:52:30.514Z,3.24
2022-11-27T03:53:33.307Z,3.19
2022-11-27T03:54:30.584Z,3.27
2022-11-27T03:55:30.537Z,3.21
2022-11-27T03:56:30.524Z,3.29
2022-11-27T03:57:30.544Z,3.19
2022-11-27T03:58:33.292Z,3.15
2022-11-27T03:59:30.553Z,3.18
2022-11-27T04:00:30.528Z,3.16
2022-11-27T04:01:30.693Z,3.13
2022-11-27T04:02:30.651Z,3.16
2022-11-27T04:03:31.096Z,3.29
2022-11-27T04:04:33.694Z,3.09
2022-11-27T04:05:30.543Z,3.01
2022-11-27T04:06:30.531Z,3.09
2022-11-27T04:07:30.743Z,3.12
2022-11-27T04:08:30.537Z,3.05
2022-11-27T04:09:32.498Z,3.06
2022-11-27T04:10:30.586Z,3.01
2022-11-27T04:11:30.563Z,3.05
2022-11-27T04:12:30.551Z,2.94
2022-11-27T04:13:30.549Z,3
2022-11-27T04:14:30.590Z,2.91
2022-11-27T04:15:30.563Z,3.03
2022-11-27T04:16:30.775Z,2.97
2022-11-27T04:17:30.559Z,3.03
2022-11-27T04:18:30.691Z,3.09
2022-11-27T04:19:30.849Z,3
2022-11-27T04:20:30.790Z,3.05
2022-11-27T04:21:30.574Z,3.01
2022-11-27T04:22:30.561Z,3.01
2022-11-27T04:23:30.575Z,3.06
2022-11-27T04:24:30.620Z,2.88
2022-11-27T04:25:30.582Z,2.94
2022-11-27T04:26:30.595Z,2.95
2022-11-27T04:27:30.589Z,2.97
2022-11-27T04:28:30.572Z,2.94
2022-11-27T04:29:30.603Z,2.94
2022-11-27T04:30:30.572Z,2.95
2022-11-27T04:31:33.783Z,2.83
2022-11-27T04:32:30.604Z,2.91
2022-11-27T04:33:30.603Z,2.85
2022-11-27T04:34:30.777Z,2.87
2022-11-27T04:35:36.744Z,2.77
2022-11-27T04:36:33.552Z,2.79
2022-11-27T04:37:30.607Z,2.83
2022-11-27T04:38:30.597Z,2.73
2022-11-27T04:39:30.645Z,2.73
2022-11-27T04:40:30.589Z,2.8
2022-11-27T04:41:30.614Z,2.77
2022-11-27T04:42:30.600Z,2.68
2022-11-27T04:43:30.604Z,2.7
2022-11-27T04:44:30.623Z,2.68
2022-11-27T04:45:30.613Z,2.8
2022-11-27T04:46:30.804Z,2.72
2022-11-27T04:47:30.603Z,2.73
2022-11-27T04:48:30.611Z,2.72
2022-11-27T04:49:30.625Z,2.72
2022-11-27T04:50:30.766Z,2.75
2022-11-27T04:51:30.761Z,2.64
2022-11-27T04:52:30.716Z,2.62
2022-11-27T04:53:30.666Z,2.7
2022-11-27T04:54:30.657Z,2.68
2022-11-27T04:55:30.681Z,2.7
2022-11-27T04:56:30.665Z,2.77
2022-11-27T04:57:30.644Z,2.82
2022-11-27T04:58:30.639Z,2.82
2022-11-27T04:59:30.661Z,2.82
2022-11-27T05:00:30.889Z,2.82
2022-11-27T05:01:30.826Z,2.83
2022-11-27T05:02:30.862Z,2.85
2022-11-27T05:03:33.393Z,2.82
2022-11-27T05:04:30.657Z,2.88
2022-11-27T05:05:30.650Z,2.82
2022-11-27T05:06:30.745Z,2.83
2022-11-27T05:07:31.068Z,2.83
2022-11-27T05:08:30.758Z,2.8
2022-11-27T05:09:30.691Z,2.87
2022-11-27T05:10:30.767Z,2.85
2022-11-27T05:11:30.673Z,2.79
2022-11-27T05:12:30.704Z,2.91
2022-11-27T05:13:30.648Z,2.87
2022-11-27T05:14:32.267Z,2.88
2022-11-27T05:15:33.651Z,2.77
2022-11-27T05:16:30.901Z,2.72
2022-11-27T05:17:30.656Z,2.8
2022-11-27T05:18:30.664Z,2.82
2022-11-27T05:19:30.708Z,2.85
2022-11-27T05:20:30.655Z,2.9
2022-11-27T05:21:30.725Z,2.73
2022-11-27T05:22:30.781Z,2.79
2022-11-27T05:23:30.787Z,2.72
2022-11-27T05:24:30.831Z,2.72
2022-11-27T05:25:33.545Z,2.79
2022-11-27T05:26:30.713Z,2.72
2022-11-27T05:27:30.661Z,2.77
2022-11-27T05:28:31.701Z,2.79
2022-11-27T05:29:30.831Z,2.79
2022-11-27T05:30:30.696Z,2.72
2022-11-27T05:31:30.984Z,2.7
2022-11-27T05:32:30.679Z,2.77
2022-11-27T05:33:30.669Z,2.69
2022-11-27T05:34:30.703Z,2.73
2022-11-27T05:35:30.697Z,2.83
2022-11-27T05:36:33.470Z,2.69
2022-11-27T05:37:30.695Z,2.87
2022-11-27T05:38:30.811Z,2.82
2022-11-27T05:39:30.860Z,2.72
2022-11-27T05:40:30.793Z,2.76
2022-11-27T05:41:30.676Z,2.77
2022-11-27T05:42:30.725Z,2.75
2022-11-27T05:43:30.687Z,2.68
2022-11-27T05:44:30.720Z,2.72
2022-11-27T05:45:30.715Z,2.79
2022-11-27T05:46:30.979Z,2.73
2022-11-27T05:47:33.670Z,2.68
2022-11-27T05:48:30.697Z,2.73
2022-11-27T05:49:30.713Z,2.7
2022-11-27T05:50:30.696Z,2.77
2022-11-27T05:51:30.717Z,2.75
2022-11-27T05:52:30.751Z,2.75
2022-11-27T05:53:30.714Z,2.73
2022-11-27T05:54:30.858Z,2.76
2022-11-27T05:55:30.846Z,2.75
2022-11-27T05:56:30.898Z,2.7
2022-11-27T05:57:30.720Z,2.76
2022-11-27T05:58:33.810Z,2.72
2022-11-27T05:59:30.744Z,2.72
2022-11-27T06:00:30.735Z,2.75
2022-11-27T06:01:30.877Z,2.68
2022-11-27T06:02:34.507Z,2.61
2022-11-27T06:03:33.782Z,2.57
2022-11-27T06:04:30.762Z,2.69
2022-11-27T06:05:30.746Z,2.65
2022-11-27T06:06:30.762Z,2.69
2022-11-27T06:07:30.977Z,2.59
2022-11-27T06:08:30.743Z,2.7
2022-11-27T06:09:34.150Z,2.64
2022-11-27T06:10:30.755Z,2.62
2022-11-27T06:11:30.882Z,2.59
2022-11-27T06:12:30.859Z,2.65
2022-11-27T06:13:30.752Z,2.72
2022-11-27T06:14:34.003Z,2.69
2022-11-27T06:15:30.759Z,2.68
2022-11-27T06:16:31.017Z,2.73
2022-11-27T06:17:30.774Z,2.58
2022-11-27T06:18:30.747Z,2.64
2022-11-27T06:19:30.756Z,2.62
2022-11-27T06:20:36.648Z,2.57
2022-11-27T06:21:30.750Z,2.57
2022-11-27T06:22:30.766Z,2.61
2022-11-27T06:23:30.799Z,2.55
2022-11-27T06:24:30.830Z,2.65
2022-11-27T06:25:32.686Z,2.54
2022-11-27T06:26:30.760Z,2.68
2022-11-27T06:27:30.884Z,2.61
2022-11-27T06:28:30.892Z,2.64
2022-11-27T06:29:30.767Z,2.7
2022-11-27T06:30:30.801Z,2.61
2022-11-27T06:31:30.988Z,2.54
2022-11-27T06:32:30.781Z,2.58
2022-11-27T06:33:30.775Z,2.59
2022-11-27T06:34:30.775Z,2.55
2022-11-27T06:35:30.802Z,2.57
2022-11-27T06:36:33.579Z,2.59
2022-11-27T06:37:30.766Z,2.69
2022-11-27T06:38:30.792Z,2.58
2022-11-27T06:39:30.787Z,2.62
2022-11-27T06:40:30.820Z,2.64
2022-11-27T06:41:30.917Z,2.61
2022-11-27T06:42:30.794Z,2.62
2022-11-27T06:43:30.905Z,2.64
2022-11-27T06:44:30.937Z,2.58
2022-11-27T06:45:30.961Z,2.73
2022-11-27T06:46:30.814Z,2.73
2022-11-27T06:47:33.566Z,2.57
2022-11-27T06:48:30.806Z,2.51
2022-11-27T06:49:30.789Z,2.58
2022-11-27T06:50:30.825Z,2.54
2022-11-27T06:51:30.811Z,2.52
2022-11-27T06:52:32.754Z,2.64
2022-11-27T06:53:30.802Z,2.58
2022-11-27T06:54:30.796Z,2.55
2022-11-27T06:55:30.850Z,2.55
2022-11-27T06:56:30.808Z,2.65
2022-11-27T06:57:30.942Z,2.57
2022-11-27T06:58:35.732Z,2.57
2022-11-27T06:59:30.846Z,2.57
2022-11-27T07:00:31.083Z,2.59
2022-11-27T07:01:31.109Z,2.51
2022-11-27T07:02:31.053Z,2.58
2022-11-27T07:03:30.896Z,2.65
2022-11-27T07:04:30.846Z,2.69
2022-11-27T07:05:30.842Z,2.62
2022-11-27T07:06:30.876Z,2.62
2022-11-27T07:07:31.014Z,2.69
2022-11-27T07:08:30.833Z,2.64
2022-11-27T07:09:30.831Z,2.65
2022-11-27T07:10:30.947Z,2.65
2022-11-27T07:11:30.840Z,2.58
2022-11-27T07:12:30.829Z,2.52
2022-11-27T07:13:30.973Z,2.47
2022-11-27T07:14:31.024Z,2.51
2022-11-27T07:15:30.871Z,2.59
2022-11-27T07:16:31.232Z,2.64
2022-11-27T07:17:30.854Z,2.65
2022-11-27T07:18:30.837Z,2.57
2022-11-27T07:19:30.839Z,2.5
2022-11-27T07:20:30.890Z,2.62
2022-11-27T07:21:30.897Z,2.61
2022-11-27T07:22:30.840Z,2.55
2022-11-27T07:23:30.852Z,2.68
2022-11-27T07:24:30.842Z,2.58
2022-11-27T07:25:30.878Z,2.65
2022-11-27T07:26:30.939Z,2.64
2022-11-27T07:27:30.858Z,2.65
2022-11-27T07:28:30.862Z,2.62
2022-11-27T07:29:31.001Z,2.62
2022-11-27T07:30:32.462Z,2.7
2022-11-27T07:31:31.112Z,2.75
2022-11-27T07:32:30.992Z,2.76
2022-11-27T07:33:30.875Z,2.65
2022-11-27T07:34:30.859Z,2.64
2022-11-27T07:35:30.907Z,2.65
2022-11-27T07:36:30.879Z,2.61
2022-11-27T07:37:30.870Z,2.59
2022-11-27T07:38:30.874Z,2.72
2022-11-27T07:40:05.943Z,2.69
2022-11-27T07:40:31.012Z,2.68
2022-11-27T07:41:37.999Z,2.68
2022-11-27T07:42:46.241Z,2.7
2022-11-27T07:43:31.068Z,2.62
2022-11-27T07:44:30.885Z,2.7
2022-11-27T07:45:31.258Z,2.82
2022-11-27T07:46:31.005Z,2.76
2022-11-27T07:47:30.886Z,2.82
2022-11-27T07:48:31.034Z,2.69
2022-11-27T07:49:30.892Z,2.83
2022-11-27T07:50:31.007Z,2.87
2022-11-27T07:51:30.887Z,2.76
2022-11-27T07:52:41.356Z,2.79
2022-11-27T07:53:30.899Z,2.85
2022-11-27T07:54:30.896Z,2.72
2022-11-27T07:55:30.921Z,2.95
2022-11-27T07:56:30.905Z,2.9
2022-11-27T07:57:30.924Z,2.9
2022-11-27T07:58:30.893Z,2.88
2022-11-27T07:59:30.982Z,2.82
2022-11-27T08:00:30.985Z,2.9
2022-11-27T08:01:31.251Z,2.95
2022-11-27T08:02:31.062Z,2.9
2022-11-27T08:03:33.702Z,3.03
2022-11-27T08:04:31.244Z,3.01
2022-11-27T08:05:30.922Z,3.05
2022-11-27T08:06:30.933Z,3.09
2022-11-27T08:07:31.278Z,3.06
2022-11-27T08:08:30.927Z,3.11
2022-11-27T08:09:30.912Z,3.13
2022-11-27T08:10:31.040Z,3.03
2022-11-27T08:11:30.923Z,3.13
2022-11-27T08:12:30.940Z,3.12
2022-11-27T08:13:30.941Z,3.01
2022-11-27T08:14:33.800Z,3.15
2022-11-27T08:15:30.952Z,3.13
2022-11-27T08:16:31.260Z,3.18
2022-11-27T08:17:31.124Z,3.24
2022-11-27T08:18:31.056Z,3.24
2022-11-27T08:19:30.963Z,3.22
2022-11-27T08:20:31.073Z,3.34
2022-11-27T08:21:30.938Z,3.19
2022-11-27T08:22:30.945Z,3.33
2022-11-27T08:23:30.953Z,3.31
2022-11-27T08:24:30.958Z,3.36
2022-11-27T08:25:33.814Z,3.34
2022-11-27T08:26:30.959Z,3.33
2022-11-27T08:27:30.979Z,3.37
2022-11-27T08:28:30.973Z,3.45
2022-11-27T08:29:37.139Z,3.33
2022-11-27T08:30:31.238Z,3.43
2022-11-27T08:31:31.123Z,3.48
2022-11-27T08:32:30.944Z,3.56
2022-11-27T08:33:31.097Z,3.48
2022-11-27T08:34:31.086Z,3.55
2022-11-27T08:35:31.342Z,3.48
2022-11-27T08:36:34.128Z,3.59
2022-11-27T08:37:31.004Z,3.58
2022-11-27T08:38:30.968Z,3.55
2022-11-27T08:39:30.989Z,3.63
2022-11-27T08:40:30.996Z,3.59
2022-11-27T08:41:32.641Z,3.71
2022-11-27T08:42:30.980Z,3.67
2022-11-27T08:43:30.958Z,3.7
2022-11-27T08:44:30.977Z,3.7
2022-11-27T08:45:31.111Z,3.73
2022-11-27T08:46:30.994Z,3.76
2022-11-27T08:47:34.025Z,3.71
2022-11-27T08:48:30.969Z,3.71
2022-11-27T08:49:31.094Z,3.81
2022-11-27T08:50:31.127Z,3.78
2022-11-27T08:51:31.023Z,3.67
2022-11-27T08:52:33.855Z,3.73
2022-11-27T08:53:31.002Z,3.7
2022-11-27T08:54:30.980Z,3.74
2022-11-27T08:55:31.018Z,3.81
2022-11-27T08:56:31.078Z,3.7
2022-11-27T08:57:31.127Z,3.74
2022-11-27T08:58:31.000Z,3.71
2022-11-27T08:59:31.024Z,3.76
2022-11-27T09:00:32.830Z,3.77
2022-11-27T09:01:31.320Z,3.81
2022-11-27T09:02:31.015Z,3.88
2022-11-27T09:03:34.175Z,3.74
2022-11-27T09:04:31.336Z,3.85
2022-11-27T09:05:31.125Z,3.73
2022-11-27T09:06:31.143Z,3.81
2022-11-27T09:07:31.181Z,3.77
2022-11-27T09:08:31.157Z,3.77
2022-11-27T09:09:31.019Z,3.71
2022-11-27T09:10:31.072Z,3.89
2022-11-27T09:11:31.070Z,3.96
2022-11-27T09:12:31.017Z,3.85
2022-11-27T09:13:31.031Z,3.86
2022-11-27T09:14:34.111Z,3.88
2022-11-27T09:15:31.152Z,3.85
2022-11-27T09:16:31.170Z,3.85
2022-11-27T09:17:31.117Z,4.04
2022-11-27T09:18:31.039Z,4.06
2022-11-27T09:19:31.044Z,4
2022-11-27T09:20:31.036Z,4.16
2022-11-27T09:21:31.189Z,4.09
2022-11-27T09:22:31.210Z,4.1
2022-11-27T09:23:31.022Z,4.18
2022-11-27T09:24:31.148Z,4.21
2022-11-27T09:25:33.822Z,4.22
2022-11-27T09:26:31.076Z,4.09
2022-11-27T09:27:31.099Z,4.06
2022-11-27T09:28:35.926Z,4.22
2022-11-27T09:29:31.076Z,4.2
2022-11-27T09:30:31.070Z,4.07
2022-11-27T09:31:31.509Z,4.13
2022-11-27T09:32:31.149Z,4.1
2022-11-27T09:33:31.096Z,4.04
2022-11-27T09:34:37.414Z,4.09
2022-11-27T09:35:31.439Z,4.16
2022-11-27T09:36:31.129Z,4.12
2022-11-27T09:37:31.189Z,4.09
2022-11-27T09:38:31.231Z,4.13
2022-11-27T09:39:31.098Z,4.14
2022-11-27T09:40:31.440Z,4.25
2022-11-27T09:41:31.108Z,4.25
2022-11-27T09:42:31.081Z,4.14
2022-11-27T09:43:31.072Z,4.02
2022-11-27T09:44:31.146Z,4.1
2022-11-27T09:45:31.327Z,4.21
2022-11-27T09:46:31.253Z,4.22
2022-11-27T09:47:31.084Z,4.1
2022-11-27T09:48:31.123Z,4.09
2022-11-27T09:49:31.084Z,4.31
2022-11-27T09:50:31.174Z,4.25
2022-11-27T09:51:31.109Z,4.25
2022-11-27T09:52:31.098Z,4.31
2022-11-27T09:53:31.233Z,4.32
2022-11-27T09:54:31.212Z,4.28
2022-11-27T09:55:31.140Z,4.27
2022-11-27T09:56:31.232Z,4.28
2022-11-27T09:57:34.112Z,4.75
2022-11-27T09:58:31.145Z,4.82
2022-11-27T09:59:31.109Z,5.18
2022-11-27T10:00:31.101Z,4.64
2022-11-27T10:01:50.985Z,4.45
2022-11-27T10:02:31.813Z,4.42
2022-11-27T10:03:31.288Z,4.36
2022-11-27T10:05:12.708Z,4.38
2022-11-27T10:05:31.622Z,4.34
2022-11-27T10:06:31.178Z,4.38
2022-11-27T10:07:31.867Z,4.43
2022-11-27T10:08:32.260Z,4.4
2022-11-27T10:09:31.247Z,4.36
2022-11-27T10:10:31.237Z,4.42
2022-11-27T10:11:31.113Z,4.31
2022-11-27T10:12:31.305Z,4.4
2022-11-27T10:13:31.201Z,4.4
2022-11-27T10:14:31.121Z,4.38
2022-11-27T10:15:31.131Z,4.42
2022-11-27T10:16:31.417Z,4.42
2022-11-27T10:17:31.155Z,4.38
2022-11-27T10:18:31.150Z,4.46
2022-11-27T10:19:34.018Z,4.57
2022-11-27T10:20:31.129Z,4.49
2022-11-27T10:21:31.134Z,4.52
2022-11-27T10:22:31.191Z,4.58
2022-11-27T10:23:31.151Z,4.57
2022-11-27T10:24:31.127Z,4.57
2022-11-27T10:25:31.241Z,4.64
2022-11-27T10:26:31.278Z,4.66
2022-11-27T10:27:31.647Z,4.68
2022-11-27T10:28:31.265Z,4.78
2022-11-27T10:29:31.154Z,4.97
2022-11-27T10:30:34.325Z,4.86
2022-11-27T10:31:31.366Z,5.05
2022-11-27T10:32:59.468Z,5.13
2022-11-27T10:33:31.154Z,5.12
2022-11-27T10:34:31.167Z,5
2022-11-27T10:35:31.169Z,4.92
2022-11-27T10:36:31.156Z,4.94
2022-11-27T10:37:31.180Z,4.87
2022-11-27T10:38:31.221Z,4.76
2022-11-27T10:39:31.159Z,4.95
2022-11-27T10:40:31.167Z,4.86
2022-11-27T10:41:54.205Z,4.83
2022-11-27T10:42:31.197Z,4.92
2022-11-27T10:43:31.170Z,5.08
2022-11-27T10:44:31.308Z,5.18
2022-11-27T10:45:31.269Z,5.31
2022-11-27T10:46:31.463Z,5.38
2022-11-27T10:47:37.558Z,5.4
2022-11-27T10:48:31.183Z,5.64
2022-11-27T10:49:31.214Z,5.44
2022-11-27T10:50:31.172Z,5.4
2022-11-27T10:51:31.189Z,5.16
2022-11-27T10:52:32.246Z,5.13
2022-11-27T10:53:31.166Z,5.18
2022-11-27T10:54:31.172Z,5.12
2022-11-27T10:55:31.202Z,5.2
2022-11-27T10:56:31.195Z,5.29
2022-11-27T10:57:32.029Z,5.25
2022-11-27T10:58:31.194Z,5.13
2022-11-27T10:59:37.436Z,5.02
2022-11-27T11:00:31.340Z,5
2022-11-27T11:01:31.316Z,4.95
2022-11-27T11:02:31.412Z,4.97
2022-11-27T11:03:33.999Z,5.01
2022-11-27T11:05:31.087Z,5
2022-11-27T11:06:30.094Z,4.98
2022-11-27T11:07:28.972Z,4.97
2022-11-27T11:08:31.821Z,5
2022-11-27T11:09:28.697Z,4.89
2022-11-27T11:10:28.698Z,5.01
2022-11-27T11:11:28.715Z,5
2022-11-27T11:12:28.757Z,5.07
2022-11-27T11:13:28.971Z,5.12
2022-11-27T11:14:28.697Z,5.05
2022-11-27T11:15:28.706Z,5.13
2022-11-27T11:16:39.629Z,5.04
2022-11-27T11:17:29.186Z,5.12
2022-11-27T11:18:28.722Z,5.13
2022-11-27T11:19:31.848Z,5.12
2022-11-27T11:20:28.710Z,5.08
2022-11-27T11:21:28.696Z,5.13
2022-11-27T11:22:28.725Z,5.16
2022-11-27T11:23:28.753Z,5.19
2022-11-27T11:24:28.723Z,5.19
2022-11-27T11:25:28.710Z,5.2
2022-11-27T11:26:28.745Z,5.16
2022-11-27T11:27:28.735Z,5.05
2022-11-27T11:28:28.741Z,5.19
2022-11-27T11:29:29.014Z,5.2
2022-11-27T11:30:31.503Z,5.15
2022-11-27T11:31:29.024Z,5.18
2022-11-27T11:32:28.717Z,5.18
2022-11-27T11:33:28.864Z,5.23
2022-11-27T11:34:28.726Z,5.19
2022-11-27T11:35:28.729Z,5.29
2022-11-27T11:36:28.748Z,5.38
2022-11-27T11:37:28.730Z,5.19
2022-11-27T11:38:28.751Z,5.36
2022-11-27T11:39:28.754Z,5.28
2022-11-27T11:40:28.733Z,5.34
2022-11-27T11:41:28.906Z,5.28
2022-11-27T11:42:28.759Z,5.25
2022-11-27T11:43:28.780Z,5.34
2022-11-27T11:44:28.790Z,5.33
2022-11-27T11:45:35.553Z,5.34
2022-11-27T11:46:28.972Z,5.33
2022-11-27T11:47:28.772Z,5.37
2022-11-27T11:48:28.789Z,5.29
2022-11-27T11:49:28.873Z,5.4
2022-11-27T11:50:28.634Z,5.37
2022-11-27T11:51:33.881Z,5.52
2022-11-27T11:52:31.607Z,5.4
2022-11-27T11:53:28.844Z,5.38
2022-11-27T11:54:28.754Z,5.38
2022-11-27T11:55:28.765Z,5.52
2022-11-27T11:56:28.776Z,5.46
2022-11-27T11:57:28.798Z,5.44
2022-11-27T11:58:28.757Z,5.58
2022-11-27T11:59:28.772Z,5.51
2022-11-27T12:01:19.169Z,5.59
2022-11-27T12:01:35.253Z,5.52
2022-11-27T12:02:35.440Z,5.51
2022-11-27T12:03:35.108Z,5.59
2022-11-27T12:04:35.410Z,5.73
2022-11-27T12:05:35.121Z,5.58
2022-11-27T12:06:35.101Z,5.7
2022-11-27T12:07:35.360Z,5.7
2022-11-27T12:08:38.188Z,5.58
2022-11-27T12:09:35.164Z,5.69
2022-11-27T12:10:35.131Z,5.69
2022-11-27T12:11:35.130Z,5.65
2022-11-27T12:12:35.120Z,5.64
2022-11-27T12:13:38.000Z,5.56
2022-11-27T12:14:35.134Z,5.65
2022-11-27T12:15:35.148Z,5.62
2022-11-27T12:16:35.557Z,5.67
2022-11-27T12:17:35.261Z,5.74
2022-11-27T12:18:35.132Z,5.7
2022-11-27T12:19:37.920Z,5.73
2022-11-27T12:20:40.543Z,5.69
2022-11-27T12:21:35.253Z,5.64
2022-11-27T12:22:35.142Z,5.74
2022-11-27T12:23:35.134Z,5.73
2022-11-27T12:24:35.132Z,5.61
2022-11-27T12:25:35.142Z,5.61
2022-11-27T12:26:35.141Z,5.64
2022-11-27T12:27:35.214Z,5.65
2022-11-27T12:28:35.173Z,5.7
2022-11-27T12:29:35.145Z,5.73
2022-11-27T12:30:37.922Z,5.73
2022-11-27T12:31:35.439Z,5.79
2022-11-27T12:32:35.330Z,5.73
2022-11-27T12:33:35.271Z,5.69
2022-11-27T12:34:35.143Z,5.7
2022-11-27T12:35:35.174Z,5.72
2022-11-27T12:36:35.164Z,5.74
2022-11-27T12:37:35.264Z,5.65
2022-11-27T12:38:35.158Z,5.76
2022-11-27T12:39:35.157Z,5.65
2022-11-27T12:40:35.193Z,5.73
2022-11-27T12:41:37.953Z,5.72
2022-11-27T12:42:35.162Z,5.62
2022-11-27T12:43:35.190Z,5.76
2022-11-27T12:44:35.176Z,5.72
2022-11-27T12:45:35.555Z,5.76
2022-11-27T12:46:35.272Z,5.8
2022-11-27T12:47:42.345Z,5.9
2022-11-27T12:48:35.190Z,5.79
2022-11-27T12:49:35.308Z,5.74
2022-11-27T12:50:35.198Z,5.69
2022-11-27T12:51:35.196Z,5.73
2022-11-27T12:52:38.029Z,5.65
2022-11-27T12:53:35.321Z,5.62
2022-11-27T12:54:35.194Z,5.72
2022-11-27T12:55:35.215Z,5.69
2022-11-27T12:56:35.180Z,5.64
2022-11-27T12:57:38.021Z,5.69
2022-11-27T12:58:35.207Z,5.69
2022-11-27T12:59:35.183Z,5.69
2022-11-27T13:00:35.228Z,5.72
2022-11-27T13:01:35.421Z,5.73
2022-11-27T13:02:35.580Z,5.73
2022-11-27T13:03:38.219Z,5.69
2022-11-27T13:04:35.206Z,5.64
2022-11-27T13:05:35.326Z,5.64
2022-11-27T13:06:35.206Z,5.58
2022-11-27T13:07:35.408Z,5.79
2022-11-27T13:08:36.771Z,5.76
2022-11-27T13:09:35.328Z,5.76
2022-11-27T13:10:35.244Z,5.7
2022-11-27T13:11:35.212Z,5.67
2022-11-27T13:12:35.212Z,5.69
2022-11-27T13:13:36.266Z,5.73
2022-11-27T13:14:42.709Z,5.76
2022-11-27T13:15:35.226Z,5.77
2022-11-27T13:16:35.477Z,5.7
2022-11-27T13:17:35.247Z,5.79
2022-11-27T13:18:35.273Z,5.76
2022-11-27T13:19:38.147Z,5.74
2022-11-27T13:20:35.238Z,5.76
2022-11-27T13:21:35.366Z,5.73
2022-11-27T13:22:35.271Z,5.79